createdAt,value
2017-11-23T00:00:59.280Z,99.90
2017-11-23T00:03:25.839Z,99.90
2017-11-23T00:05:52.483Z,99.90
2017-11-23T00:08:18.952Z,99.90
2017-11-23T00:10:47.968Z,99.90
2017-11-23T00:13:15.348Z,99.90
2017-11-23T00:15:41.788Z,99.90
2017-11-23T00:18:08.289Z,99.90
2017-11-23T00:20:35.456Z,99.90
2017-11-23T00:23:02.685Z,99.90
2017-11-23T00:25:29.152Z,99.90
2017-11-23T00:27:56.391Z,99.90
2017-11-23T00:30:22.832Z,99.90
2017-11-23T00:32:49.322Z,99.90
2017-11-23T00:35:15.784Z,99.90
2017-11-23T00:37:42.309Z,99.90
2017-11-23T00:40:08.723Z,99.90
2017-11-23T00:42:35.334Z,99.90
2017-11-23T00:45:01.800Z,99.90
2017-11-23T00:47:28.236Z,99.90
2017-11-23T00:49:55.611Z,99.90
2017-11-23T00:52:22.058Z,99.90
2017-11-23T00:54:48.578Z,99.90
2017-11-23T00:57:15.876Z,99.90
2017-11-23T00:59:42.309Z,99.90
2017-11-23T01:02:08.769Z,99.90
2017-11-23T01:04:35.277Z,99.90
2017-11-23T01:07:01.820Z,99.90
2017-11-23T01:09:28.215Z,99.90
2017-11-23T01:11:54.728Z,99.90
2017-11-23T01:14:21.235Z,99.90
2017-11-23T01:16:47.645Z,99.90
2017-11-23T01:19:14.808Z,99.90
2017-11-23T01:21:41.229Z,99.90
2017-11-23T01:24:07.864Z,99.90
2017-11-23T01:26:34.250Z,99.90
2017-11-23T01:29:00.665Z,99.90
2017-11-23T01:31:28.067Z,99.90
2017-11-23T01:33:54.503Z,99.90
2017-11-23T01:36:20.924Z,99.90
2017-11-23T01:38:47.380Z,99.90
2017-11-23T01:41:13.808Z,99.90
2017-11-23T01:43:40.250Z,99.90
2017-11-23T01:46:06.724Z,99.90
2017-11-23T01:48:33.205Z,99.90
2017-11-23T01:50:59.655Z,99.90
2017-11-23T01:53:26.084Z,99.90
2017-11-23T01:55:52.761Z,99.90
2017-11-23T01:58:19.180Z,99.90
2017-11-23T02:00:45.704Z,99.90
2017-11-23T02:03:12.145Z,99.90
2017-11-23T02:05:38.595Z,99.90
2017-11-23T02:08:04.995Z,99.90
2017-11-23T02:10:31.395Z,99.90
2017-11-23T02:12:57.889Z,99.90
2017-11-23T02:15:24.303Z,99.90
2017-11-23T02:17:50.740Z,99.90
2017-11-23T02:20:17.330Z,99.90
2017-11-23T02:22:43.764Z,99.90
2017-11-23T02:25:10.276Z,99.90
2017-11-23T02:27:37.500Z,99.90
2017-11-23T02:30:03.929Z,99.90
2017-11-23T02:32:30.574Z,99.90
2017-11-23T02:34:57.021Z,99.90
2017-11-23T02:37:23.620Z,99.90
2017-11-23T02:39:50.055Z,99.90
2017-11-23T02:42:16.502Z,99.90
2017-11-23T02:44:42.904Z,99.90
2017-11-23T02:47:09.364Z,99.90
2017-11-23T02:49:36.555Z,99.90
2017-11-23T02:52:03.030Z,99.90
2017-11-23T02:54:29.476Z,99.90
2017-11-23T02:56:55.876Z,99.90
2017-11-23T02:59:22.298Z,99.90
2017-11-23T03:01:48.689Z,99.90
2017-11-23T03:04:15.132Z,99.90
2017-11-23T03:06:42.468Z,99.90
2017-11-23T03:09:08.908Z,99.90
2017-11-23T03:11:35.346Z,99.90
2017-11-23T03:14:01.820Z,99.90
2017-11-23T03:16:29.048Z,99.90
2017-11-23T03:18:55.504Z,99.90
2017-11-23T03:21:22.657Z,99.90
2017-11-23T03:23:49.123Z,99.90
2017-11-23T03:26:15.530Z,99.90
2017-11-23T03:28:41.992Z,99.90
2017-11-23T03:31:09.225Z,99.90
2017-11-23T03:33:35.713Z,99.90
2017-11-23T03:36:02.141Z,99.90
2017-11-23T03:38:28.577Z,99.90
2017-11-23T03:40:55.095Z,99.90
2017-11-23T03:43:22.231Z,99.90
2017-11-23T03:45:49.426Z,99.90
2017-11-23T03:48:15.847Z,99.90
2017-11-23T03:50:43.044Z,99.90
2017-11-23T03:53:09.467Z,99.90
2017-11-23T03:55:35.905Z,99.90
2017-11-23T03:58:02.446Z,99.90
2017-11-23T04:00:28.959Z,99.90
2017-11-23T04:03:11.020Z,99.90
2017-11-23T04:05:37.597Z,99.90
2017-11-23T04:08:04.831Z,99.90
2017-11-23T04:10:31.297Z,99.90
2017-11-23T04:12:57.736Z,99.90
2017-11-23T04:15:24.925Z,99.90
2017-11-23T04:17:51.464Z,99.90
2017-11-23T04:20:17.953Z,99.90
2017-11-23T04:22:45.145Z,99.90
2017-11-23T04:25:11.641Z,99.90
2017-11-23T04:27:38.085Z,99.90
2017-11-23T04:30:04.520Z,99.90
2017-11-23T04:32:30.967Z,99.90
2017-11-23T04:34:58.161Z,99.90
2017-11-23T04:37:24.608Z,99.90
2017-11-23T04:39:51.136Z,99.90
2017-11-23T04:42:17.610Z,99.90
2017-11-23T04:44:44.014Z,99.90
2017-11-23T04:47:10.485Z,99.90
2017-11-23T04:49:36.920Z,99.90
2017-11-23T04:52:03.473Z,99.90
2017-11-23T04:54:29.925Z,99.90
2017-11-23T04:56:56.328Z,99.90
2017-11-23T04:59:22.734Z,99.90
2017-11-23T05:01:49.283Z,99.90
2017-11-23T05:04:15.706Z,99.90
2017-11-23T05:06:42.853Z,99.90
2017-11-23T05:09:10.059Z,99.90
2017-11-23T05:11:36.485Z,99.90
2017-11-23T05:14:02.969Z,99.90
2017-11-23T05:16:29.498Z,99.90
2017-11-23T05:18:55.903Z,99.90
2017-11-23T05:21:22.382Z,99.90
2017-11-23T05:23:48.808Z,99.90
2017-11-23T05:26:15.258Z,99.90
2017-11-23T05:28:41.686Z,99.90
2017-11-23T05:31:08.253Z,99.90
2017-11-23T05:33:34.648Z,99.90
2017-11-23T05:36:01.222Z,99.90
2017-11-23T05:38:27.648Z,99.90
2017-11-23T05:40:54.138Z,99.90
2017-11-23T05:43:20.581Z,99.90
2017-11-23T05:45:46.996Z,99.90
2017-11-23T05:48:14.138Z,99.90
2017-11-23T05:50:40.584Z,99.90
2017-11-23T05:53:07.736Z,99.90
2017-11-23T05:55:34.217Z,99.90
2017-11-23T05:58:00.662Z,99.90
2017-11-23T06:00:27.084Z,99.90
2017-11-23T06:02:53.757Z,99.90
2017-11-23T06:05:20.165Z,99.90
2017-11-23T06:07:46.641Z,99.90
2017-11-23T06:10:13.052Z,99.90
2017-11-23T06:12:39.660Z,99.90
2017-11-23T06:15:06.911Z,99.90
2017-11-23T06:17:33.332Z,99.90
2017-11-23T06:19:59.907Z,99.90
2017-11-23T06:22:27.083Z,99.90
2017-11-23T06:24:53.531Z,99.90
2017-11-23T06:27:19.997Z,99.90
2017-11-23T06:29:46.467Z,99.90
2017-11-23T06:32:13.836Z,99.90
2017-11-23T06:34:41.044Z,99.90
2017-11-23T06:37:08.248Z,99.90
2017-11-23T06:39:35.481Z,99.90
2017-11-23T06:42:01.914Z,99.90
2017-11-23T06:44:28.339Z,99.90
2017-11-23T06:46:54.800Z,99.90
2017-11-23T06:49:21.279Z,99.90
2017-11-23T06:51:47.779Z,99.90
2017-11-23T06:54:14.364Z,99.90
2017-11-23T06:56:40.950Z,99.90
2017-11-23T06:59:08.158Z,99.90
2017-11-23T07:01:34.578Z,99.90
2017-11-23T07:04:01.811Z,99.90
2017-11-23T07:06:28.264Z,99.90
2017-11-23T07:08:55.420Z,99.90
2017-11-23T07:11:22.734Z,99.90
2017-11-23T07:13:49.237Z,99.90
2017-11-23T07:16:15.678Z,99.90
2017-11-23T07:18:42.130Z,99.90
2017-11-23T07:21:08.590Z,99.90
2017-11-23T07:23:35.073Z,99.90
2017-11-23T07:26:02.278Z,99.90
2017-11-23T07:28:28.770Z,99.90
2017-11-23T07:30:55.241Z,99.90
2017-11-23T07:33:21.728Z,99.90
2017-11-23T07:35:49.010Z,99.90
2017-11-23T07:38:16.264Z,99.90
2017-11-23T07:40:43.681Z,99.90
2017-11-23T07:43:10.113Z,99.90
2017-11-23T07:45:36.621Z,99.90
2017-11-23T07:48:03.060Z,99.90
2017-11-23T07:50:30.276Z,99.90
2017-11-23T07:52:58.238Z,99.90
2017-11-23T07:55:24.685Z,99.90
2017-11-23T07:57:51.125Z,99.90
2017-11-23T08:00:17.616Z,99.90
2017-11-23T08:02:44.057Z,99.90
2017-11-23T08:05:10.628Z,99.90
2017-11-23T08:07:37.168Z,99.90
2017-11-23T08:10:03.712Z,99.90
2017-11-23T08:12:30.237Z,99.90
2017-11-23T08:14:56.668Z,99.90
2017-11-23T08:17:23.268Z,99.90
2017-11-23T08:19:50.591Z,99.90
2017-11-23T08:22:17.046Z,99.90
2017-11-23T08:24:43.620Z,99.90
2017-11-23T08:27:10.857Z,99.90
2017-11-23T08:29:38.087Z,99.90
2017-11-23T08:32:04.584Z,99.90
2017-11-23T08:34:31.070Z,99.90
2017-11-23T08:36:57.524Z,99.90
2017-11-23T08:39:24.153Z,99.90
2017-11-23T08:41:50.637Z,99.90
2017-11-23T08:44:17.807Z,99.90
2017-11-23T08:46:44.218Z,99.90
2017-11-23T08:49:11.427Z,99.90
2017-11-23T08:51:37.838Z,99.90
2017-11-23T08:54:04.300Z,99.90
2017-11-23T08:56:30.717Z,99.90
2017-11-23T08:58:57.153Z,99.90
2017-11-23T09:01:23.652Z,99.90
2017-11-23T09:03:50.112Z,99.90
2017-11-23T09:06:17.297Z,99.90
2017-11-23T09:08:43.714Z,99.90
2017-11-23T09:11:10.986Z,99.90
2017-11-23T09:13:37.471Z,99.90
2017-11-23T09:16:04.589Z,99.90
2017-11-23T09:18:31.072Z,99.90
2017-11-23T09:20:57.560Z,99.90
2017-11-23T09:23:24.008Z,99.90
2017-11-23T09:25:50.455Z,99.90
2017-11-23T09:28:16.953Z,99.90
2017-11-23T09:30:44.139Z,99.90
2017-11-23T09:33:10.592Z,99.90
2017-11-23T09:35:37.051Z,99.90
2017-11-23T09:38:03.574Z,99.90
2017-11-23T09:40:30.002Z,99.90
2017-11-23T09:42:56.488Z,99.90
2017-11-23T09:45:23.652Z,99.90
2017-11-23T09:47:50.977Z,99.90
2017-11-23T09:50:17.408Z,99.90
2017-11-23T09:52:43.868Z,99.90
2017-11-23T09:55:10.319Z,99.90
2017-11-23T09:57:37.488Z,99.90
2017-11-23T10:00:04.666Z,99.90
2017-11-23T10:02:31.134Z,99.90
2017-11-23T10:04:57.592Z,99.90
2017-11-23T10:07:24.092Z,99.90
2017-11-23T10:09:50.533Z,99.90
2017-11-23T10:12:16.989Z,99.90
2017-11-23T10:14:43.498Z,99.90
2017-11-23T10:17:09.951Z,99.90
2017-11-23T10:19:36.358Z,99.90
2017-11-23T10:22:03.520Z,99.90
2017-11-23T10:24:29.983Z,99.90
2017-11-23T10:26:56.453Z,99.90
2017-11-23T10:29:22.899Z,99.90
2017-11-23T10:31:49.561Z,99.90
2017-11-23T10:34:16.779Z,99.90
2017-11-23T10:36:43.244Z,99.90
2017-11-23T10:39:09.729Z,99.90
2017-11-23T10:41:36.177Z,99.90
2017-11-23T10:44:02.816Z,99.90
2017-11-23T10:46:29.224Z,99.90
2017-11-23T10:48:56.412Z,99.90
2017-11-23T10:51:22.846Z,99.90
2017-11-23T10:53:49.264Z,99.90
2017-11-23T10:56:16.455Z,99.90
2017-11-23T10:58:42.907Z,99.90
2017-11-23T11:01:09.371Z,99.90
2017-11-23T11:03:35.805Z,99.90
2017-11-23T11:06:02.208Z,99.90
2017-11-23T11:08:28.640Z,99.90
2017-11-23T11:10:55.094Z,99.90
2017-11-23T11:13:21.656Z,99.90
2017-11-23T11:15:48.102Z,99.90
2017-11-23T11:18:15.324Z,99.90
2017-11-23T11:20:41.757Z,99.90
2017-11-23T11:23:08.225Z,99.90
2017-11-23T11:25:36.745Z,99.90
2017-11-23T11:28:03.925Z,99.90
2017-11-23T11:30:30.365Z,99.90
2017-11-23T11:32:56.873Z,99.90
2017-11-23T11:35:24.074Z,99.90
2017-11-23T11:37:50.528Z,99.90
2017-11-23T11:40:17.006Z,99.90
2017-11-23T11:42:43.749Z,99.90
2017-11-23T11:45:10.233Z,99.90
2017-11-23T11:47:36.701Z,99.90
2017-11-23T11:50:03.134Z,99.90
2017-11-23T11:52:29.552Z,99.90
2017-11-23T11:54:56.078Z,99.90
2017-11-23T11:57:22.518Z,99.90
2017-11-23T11:59:48.966Z,99.90
2017-11-23T12:02:15.391Z,99.90
2017-11-23T12:04:41.923Z,99.90
2017-11-23T12:07:08.565Z,99.90
2017-11-23T12:09:35.709Z,99.90
2017-11-23T12:12:04.275Z,99.90
2017-11-23T12:14:30.736Z,99.90
2017-11-23T12:20:08.377Z,99.90
2017-11-23T12:22:46.832Z,99.00
2017-11-23T12:28:23.696Z,90.60
2017-11-23T12:30:50.407Z,90.50
2017-11-23T12:33:16.831Z,90.60
2017-11-23T12:35:43.280Z,90.80
2017-11-23T12:38:09.834Z,91.00
2017-11-23T12:40:36.369Z,90.90
2017-11-23T12:43:02.841Z,90.00
2017-11-23T12:45:34.486Z,90.70
2017-11-23T12:48:02.002Z,89.90
2017-11-23T12:50:28.572Z,88.30
2017-11-23T12:53:02.028Z,90.50
2017-11-23T12:55:29.234Z,92.30
2017-11-23T12:57:55.650Z,92.30
2017-11-23T13:00:22.249Z,91.60
2017-11-23T13:02:48.755Z,91.60
2017-11-23T13:05:15.280Z,91.10
2017-11-23T13:07:41.736Z,91.60
2017-11-23T13:10:08.153Z,92.10
2017-11-23T13:12:34.597Z,92.60
2017-11-23T13:15:01.079Z,93.60
2017-11-23T13:17:27.584Z,92.10
2017-11-23T13:19:54.100Z,90.40
2017-11-23T13:22:20.617Z,84.30
2017-11-23T13:24:47.897Z,72.10
2017-11-23T13:27:14.331Z,71.20
2017-11-23T13:29:40.758Z,70.60
2017-11-23T13:32:08.228Z,72.80
2017-11-23T13:34:35.442Z,76.30
2017-11-23T13:37:03.428Z,77.90
2017-11-23T13:39:29.850Z,77.80
2017-11-23T13:41:56.286Z,81.60
2017-11-23T13:44:22.829Z,82.90
2017-11-23T13:46:49.273Z,84.70
2017-11-23T13:49:15.725Z,85.90
2017-11-23T13:51:42.273Z,88.60
2017-11-23T13:54:09.569Z,91.20
2017-11-23T13:56:36.022Z,91.10
2017-11-23T13:59:02.525Z,92.40
2017-11-23T14:01:29.746Z,96.00
2017-11-23T14:03:56.194Z,96.00
2017-11-23T14:06:24.223Z,99.20
2017-11-23T14:08:50.697Z,99.20
2017-11-23T14:11:17.953Z,99.90
2017-11-23T14:16:37.190Z,99.90
2017-11-23T14:19:03.640Z,99.90
2017-11-23T14:21:30.089Z,99.90
2017-11-23T14:23:56.653Z,99.90
2017-11-23T14:26:23.091Z,99.90
2017-11-23T14:28:51.021Z,99.90
2017-11-23T14:31:17.445Z,99.90
2017-11-23T14:33:44.684Z,99.90
2017-11-23T14:36:11.136Z,99.90
2017-11-23T14:38:38.333Z,99.90
2017-11-23T14:41:04.801Z,99.90
2017-11-23T14:43:31.230Z,99.90
2017-11-23T14:45:57.720Z,99.90
2017-11-23T14:48:24.226Z,99.90
2017-11-23T14:50:50.652Z,99.90
2017-11-23T14:53:17.245Z,99.90
2017-11-23T14:55:43.785Z,99.90
2017-11-23T14:58:10.261Z,99.90
2017-11-23T15:00:36.751Z,99.90
2017-11-23T15:03:03.912Z,99.90
2017-11-23T15:05:30.344Z,99.90
2017-11-23T15:07:59.492Z,99.90
2017-11-23T15:10:25.956Z,99.90
2017-11-23T15:12:52.450Z,99.90
2017-11-23T15:15:18.925Z,99.90
2017-11-23T15:17:45.390Z,99.90
2017-11-23T15:20:12.593Z,99.90
2017-11-23T15:22:39.065Z,99.90
2017-11-23T15:25:05.493Z,99.90
2017-11-23T15:27:32.042Z,99.90
2017-11-23T15:29:59.221Z,99.90
2017-11-23T15:32:26.423Z,99.90
2017-11-23T15:34:52.896Z,99.90
2017-11-23T15:37:19.321Z,99.90
2017-11-23T15:39:45.822Z,99.90
2017-11-23T15:42:12.534Z,99.90
2017-11-23T15:44:39.723Z,99.90
2017-11-23T15:47:06.212Z,99.90
2017-11-23T15:49:32.620Z,99.90
2017-11-23T15:51:59.069Z,99.90
2017-11-23T15:54:25.505Z,99.90
2017-11-23T15:56:52.107Z,99.90
2017-11-23T15:59:18.523Z,99.90
2017-11-23T16:01:45.721Z,99.90
2017-11-23T16:04:12.216Z,99.90
2017-11-23T16:06:40.141Z,99.90
2017-11-23T16:09:06.597Z,99.90
2017-11-23T16:11:33.071Z,99.90
2017-11-23T16:14:01.740Z,99.90
2017-11-23T16:16:28.275Z,99.90
2017-11-23T16:18:54.706Z,99.90
2017-11-23T16:21:21.169Z,99.90
2017-11-23T16:23:47.634Z,99.90
2017-11-23T16:26:14.794Z,99.90
2017-11-23T16:28:41.288Z,99.90
2017-11-23T16:31:07.766Z,99.90
2017-11-23T16:33:34.973Z,99.90
2017-11-23T16:36:01.453Z,99.90
2017-11-23T16:38:29.517Z,99.90
2017-11-23T16:41:11.781Z,99.90
2017-11-23T16:43:44.488Z,99.90
2017-11-23T16:46:16.968Z,99.90
2017-11-23T16:48:44.897Z,99.90
2017-11-23T16:51:17.390Z,99.90
2017-11-23T16:54:00.498Z,99.90
2017-11-23T16:56:29.941Z,99.90
2017-11-23T16:59:13.115Z,99.90
2017-11-23T17:01:45.516Z,99.90
2017-11-23T17:04:29.713Z,99.90
2017-11-23T17:07:11.961Z,99.90
2017-11-23T17:09:41.223Z,99.90
2017-11-23T17:12:07.653Z,99.90
2017-11-23T17:14:55.059Z,99.90
2017-11-23T17:20:24.365Z,99.90
2017-11-23T17:22:51.578Z,99.90
2017-11-23T17:25:18.022Z,99.90
2017-11-23T17:27:44.484Z,99.90
2017-11-23T17:30:10.971Z,99.90
2017-11-23T17:32:37.522Z,99.90
2017-11-23T17:35:04.110Z,99.90
2017-11-23T17:37:31.319Z,99.90
2017-11-23T17:39:57.805Z,99.90
2017-11-23T17:42:25.030Z,99.90
2017-11-23T17:44:51.491Z,99.90
2017-11-23T17:47:17.976Z,99.90
2017-11-23T17:49:44.609Z,99.90
2017-11-23T17:52:11.088Z,99.90
2017-11-23T17:54:37.589Z,99.90
2017-11-23T17:57:04.042Z,99.90
2017-11-23T17:59:30.505Z,99.90
2017-11-23T18:01:57.080Z,99.90
2017-11-23T18:04:24.637Z,99.90
2017-11-23T18:06:51.218Z,99.90
2017-11-23T18:09:17.703Z,99.90
2017-11-23T18:11:44.194Z,99.90
2017-11-23T18:14:10.670Z,99.90
2017-11-23T18:16:37.139Z,99.90
2017-11-23T18:19:18.536Z,99.90
2017-11-23T18:21:45.737Z,99.90
2017-11-23T18:24:12.238Z,99.90
2017-11-23T18:26:39.505Z,99.90
2017-11-23T18:29:06.095Z,99.90
2017-11-23T18:31:32.665Z,99.90
2017-11-23T18:33:59.901Z,99.90
2017-11-23T18:36:26.360Z,99.90
2017-11-23T18:38:53.588Z,99.90
2017-11-23T18:41:20.087Z,99.90
2017-11-23T18:43:46.580Z,99.90
2017-11-23T18:46:14.227Z,99.90
2017-11-23T18:48:40.711Z,99.90
2017-11-23T18:51:07.898Z,99.90
2017-11-23T18:53:34.402Z,99.90
2017-11-23T18:56:01.625Z,99.90
2017-11-23T18:58:28.162Z,99.90
2017-11-23T19:00:54.644Z,99.90
2017-11-23T19:03:21.847Z,99.90
2017-11-23T19:05:48.342Z,99.90
2017-11-23T19:08:15.527Z,99.90
2017-11-23T19:10:41.981Z,99.90
2017-11-23T19:13:08.589Z,99.90
2017-11-23T19:15:35.125Z,99.90
2017-11-23T19:18:02.607Z,99.90
2017-11-23T19:20:29.139Z,99.90
2017-11-23T19:22:55.963Z,99.90
2017-11-23T19:25:23.222Z,99.90
2017-11-23T19:27:50.478Z,99.90
2017-11-23T19:30:17.842Z,99.90
2017-11-23T19:32:45.019Z,99.90
2017-11-23T19:35:11.535Z,99.90
2017-11-23T19:37:46.162Z,99.90
2017-11-23T19:40:13.439Z,99.90
2017-11-23T19:42:40.007Z,99.90
2017-11-23T19:45:06.463Z,99.90
2017-11-23T19:47:33.012Z,99.90
2017-11-23T19:49:59.463Z,99.90
2017-11-23T19:52:26.271Z,99.90
2017-11-23T19:54:53.012Z,99.90
2017-11-23T19:57:24.677Z,99.90
2017-11-23T19:59:51.520Z,99.90
2017-11-23T20:02:18.056Z,99.90
2017-11-23T20:04:44.757Z,99.90
2017-11-23T20:07:12.020Z,99.90
2017-11-23T20:09:39.441Z,99.90
2017-11-23T20:12:07.595Z,99.90
2017-11-23T20:14:34.267Z,99.90
2017-11-23T20:17:01.035Z,99.90
2017-11-23T20:19:28.527Z,99.90
2017-11-23T20:21:54.976Z,99.90
2017-11-23T20:24:21.642Z,99.90
2017-11-23T20:26:48.311Z,99.90
2017-11-23T20:29:14.842Z,99.90
2017-11-23T20:31:41.559Z,99.90
2017-11-23T20:34:08.829Z,99.90
2017-11-23T20:36:35.480Z,99.90
2017-11-23T20:39:02.142Z,99.90
2017-11-23T20:41:28.712Z,99.90
2017-11-23T20:43:55.963Z,99.90
2017-11-23T20:46:23.241Z,99.90
2017-11-23T20:48:49.919Z,99.90
2017-11-23T20:51:16.415Z,99.90
2017-11-23T20:53:43.721Z,99.90
2017-11-23T20:56:10.314Z,99.90
2017-11-23T20:58:37.731Z,99.90
2017-11-23T21:01:04.273Z,99.90
2017-11-23T21:03:31.570Z,99.90
2017-11-23T21:05:59.039Z,99.90
2017-11-23T21:08:26.624Z,99.90
2017-11-23T21:10:53.111Z,99.90
2017-11-23T21:13:20.830Z,99.90
2017-11-23T21:15:47.525Z,99.90
2017-11-23T21:18:15.062Z,99.90
2017-11-23T21:20:41.560Z,99.90
2017-11-23T21:23:08.998Z,99.90
2017-11-23T21:25:36.340Z,99.90
2017-11-23T21:28:02.918Z,99.90
2017-11-23T21:30:29.461Z,99.90
2017-11-23T21:32:56.801Z,99.90
2017-11-23T21:35:23.307Z,99.90
2017-11-23T21:37:49.789Z,99.90
2017-11-23T21:40:17.767Z,99.90
2017-11-23T21:42:44.284Z,99.90
2017-11-23T21:45:10.828Z,99.90
2017-11-23T21:47:37.463Z,99.90
2017-11-23T21:50:03.995Z,99.90
2017-11-23T21:52:30.469Z,99.90
2017-11-23T21:54:57.809Z,99.90
2017-11-23T21:57:24.292Z,99.90
2017-11-23T21:59:50.848Z,99.90
2017-11-23T22:02:17.385Z,99.90
2017-11-23T22:04:44.531Z,99.90
2017-11-23T22:07:11.056Z,99.90
2017-11-23T22:09:38.319Z,99.90
2017-11-23T22:12:04.735Z,99.90
2017-11-23T22:14:32.049Z,99.90
2017-11-23T22:16:58.636Z,99.90
2017-11-23T22:19:25.868Z,99.90
2017-11-23T22:21:52.423Z,99.90
2017-11-23T22:24:18.900Z,99.90
2017-11-23T22:26:45.637Z,99.90
2017-11-23T22:29:12.066Z,99.90
2017-11-23T22:31:38.705Z,99.90
2017-11-23T22:34:05.149Z,99.90
2017-11-23T22:36:32.954Z,99.90
2017-11-23T22:38:59.473Z,99.90
2017-11-23T22:41:25.966Z,99.90
2017-11-23T22:43:52.491Z,99.90
2017-11-23T22:46:18.920Z,99.90
2017-11-23T22:48:45.405Z,99.90
2017-11-23T22:51:12.593Z,99.90
2017-11-23T22:53:39.156Z,99.90
2017-11-23T22:56:05.601Z,99.90
2017-11-23T22:58:32.039Z,99.90
2017-11-23T23:01:00.499Z,99.90
2017-11-23T23:03:26.957Z,99.90
2017-11-23T23:05:53.590Z,99.90
2017-11-23T23:08:20.031Z,99.90
2017-11-23T23:10:46.520Z,99.90
2017-11-23T23:13:13.775Z,99.90
2017-11-23T23:15:55.783Z,99.90
2017-11-23T23:18:23.068Z,99.90
2017-11-23T23:20:49.515Z,99.90
2017-11-23T23:23:15.966Z,99.90
2017-11-23T23:25:42.631Z,99.90
2017-11-23T23:28:09.068Z,99.90
2017-11-23T23:30:35.736Z,99.90
2017-11-23T23:33:03.008Z,99.90
2017-11-23T23:35:30.210Z,99.90
2017-11-23T23:37:56.704Z,99.90
2017-11-23T23:40:24.145Z,99.90
2017-11-23T23:42:51.421Z,99.90
2017-11-23T23:45:18.739Z,99.90
2017-11-23T23:47:45.211Z,99.90
2017-11-23T23:50:12.409Z,99.90
2017-11-23T23:52:38.971Z,99.90
2017-11-23T23:55:05.393Z,99.90
2017-11-23T23:57:31.842Z,99.90
2017-11-23T23:59:58.331Z,99.90
